Time;durP1;ratioP1;P1;durP2;ratioP2;P2;SDS_P1;SDS_P2;PMS_P1;PMS_P2;Temp;Humidity;BMP_temperature;BMP_pressure;BME280_temperature;BME280_humidity;BME280_pressure;Samples;Min_cycle;Max_cycle;Signal;HPM_P1;HPM_P2
2022/03/27 00:00:26;;;;;;;;;;;7.10;99.90;;;;;;5092359;28;20388;-71
2022/03/27 00:02:52;;;;;;;5.85;4.40;;;7.10;99.90;;;;;;5091611;28;19945;-71
2022/03/27 00:05:17;;;;;;;;;;;7.10;99.90;;;;;;5091952;28;20044;-71
2022/03/27 00:07:43;;;;;;;5.63;3.35;;;7.10;99.90;;;;;;5092129;28;20326;-71
2022/03/27 00:10:08;;;;;;;;;;;7.10;99.90;;;;;;5091724;28;20044;-71
2022/03/27 00:12:34;;;;;;;4.80;3.03;;;7.10;99.90;;;;;;5091726;28;19920;-71
2022/03/27 00:15:01;;;;;;;;;;;7.10;99.90;;;;;;5074317;28;20044;-72
2022/03/27 00:17:29;;;;;;;5.28;3.10;;;7.10;99.90;;;;;;5090917;28;19930;-71
2022/03/27 00:19:56;;;;;;;5.80;2.70;;;7.10;99.90;;;;;;5073958;28;20035;-70
2022/03/27 00:22:22;;;;;;;4.90;2.72;;;7.10;99.90;;;;;;5092219;28;20043;-71
2022/03/27 00:24:48;;;;;;;;;;;7.00;99.90;;;;;;5096249;28;20489;-71
2022/03/27 00:27:13;;;;;;;3.88;2.30;;;7.00;99.90;;;;;;5095743;28;19931;-71
2022/03/27 00:29:39;;;;;;;;;;;6.90;99.90;;;;;;5078077;28;20464;-71
2022/03/27 00:32:05;;;;;;;4.82;2.20;;;6.90;99.90;;;;;;5077140;28;19926;-71
2022/03/27 00:34:30;;;;;;;;;;;6.90;99.90;;;;;;5078159;28;20093;-71
2022/03/27 00:36:56;;;;;;;3.88;1.83;;;6.90;99.90;;;;;;5096170;28;19928;-71
2022/03/27 00:39:21;;;;;;;4.40;2.13;;;6.90;99.90;;;;;;5095276;28;20032;-71
2022/03/27 00:41:47;;;;;;;;;;;6.90;99.90;;;;;;5096259;28;20055;-71
2022/03/27 00:44:13;;;;;;;5.22;2.20;;;6.90;99.90;;;;;;5077838;28;19969;-71
2022/03/27 00:46:38;;;;;;;;;;;6.90;99.90;;;;;;5095819;28;20036;-71
2022/03/27 00:49:04;;;;;;;2.95;1.67;;;6.90;99.90;;;;;;5077004;28;20321;-71
2022/03/27 00:51:30;;;;;;;;;;;7.00;99.90;;;;;;5096177;28;20499;-71
2022/03/27 00:53:55;;;;;;;5.70;2.08;;;7.00;99.90;;;;;;5094993;28;20350;-71
2022/03/27 00:56:21;;;;;;;4.90;2.15;;;7.00;99.90;;;;;;5077176;28;20097;-71
2022/03/27 00:58:46;;;;;;;;;;;7.00;99.90;;;;;;5096229;28;20101;-71
2022/03/27 01:01:32;;;;;;;4.20;2.25;;;7.10;99.90;;;;;;5094237;28;19916;-71
2022/03/27 01:03:58;;;;;;;4.20;2.20;;;7.10;99.90;;;;;;5095664;28;20399;-71
2022/03/27 01:06:25;;;;;;;;;;;7.20;99.90;;;;;;5094999;28;20048;-71
2022/03/27 01:11:36;;;;;;;4.78;2.67;;;7.20;99.90;;;;;;5077431;28;20418;-71
2022/03/27 01:14:02;;;;;;;5.35;2.42;;;7.20;99.90;;;;;;5094657;28;20087;-71
2022/03/27 01:16:42;;;;;;;4.35;2.35;;;7.20;99.90;;;;;;5076797;28;20048;-71
2022/03/27 01:19:16;;;;;;;4.25;2.35;;;7.20;99.90;;;;;;5094639;28;20056;-71
2022/03/27 01:21:44;;;;;;;5.25;2.53;;;7.20;99.90;;;;;;5094677;28;20059;-71
2022/03/27 01:24:11;;;;;;;4.30;2.40;;;7.20;99.90;;;;;;5076316;28;20048;-71
2022/03/27 01:26:38;;;;;;;5.22;2.38;;;7.20;99.90;;;;;;5095022;28;20052;-71
2022/03/27 01:29:04;;;;;;;6.15;2.78;;;7.20;99.90;;;;;;5076175;28;20106;-71
2022/03/27 01:31:31;;;;;;;4.88;2.70;;;7.20;99.90;;;;;;5094988;28;20040;-71
2022/03/27 01:33:56;;;;;;;4.47;2.55;;;7.20;99.90;;;;;;5094628;28;20059;-71
2022/03/27 01:36:28;;;;;;;;;;;7.20;99.90;;;;;;5076414;28;20040;-71
2022/03/27 01:38:55;;;;;;;6.68;2.80;;;7.20;99.90;;;;;;5076546;28;19967;-71
2022/03/27 01:41:22;;;;;;;10.20;2.90;;;7.20;99.90;;;;;;5059029;28;20084;-71
2022/03/27 01:43:48;;;;;;;7.95;3.10;;;7.20;99.90;;;;;;5076315;28;20048;-71
2022/03/27 01:46:14;;;;;;;6.47;2.75;;;7.30;99.90;;;;;;5093942;28;20501;-71
2022/03/27 01:48:39;;;;;;;;;;;7.20;99.90;;;;;;5094393;28;20036;-72
2022/03/27 01:51:05;;;;;;;5.00;2.30;;;7.20;99.90;;;;;;5076444;28;19966;-72
2022/03/27 01:53:37;;;;;;;5.70;2.63;;;7.20;99.90;;;;;;5094131;28;20526;-72
2022/03/27 01:56:04;;;;;;;4.55;2.75;;;7.20;99.90;;;;;;5093990;28;20471;-72
2022/03/27 01:58:30;;;;;;;5.28;2.42;;;7.10;99.90;;;;;;5076437;28;20449;-72
2022/03/27 02:00:56;;;;;;;5.03;2.42;;;7.10;99.90;;;;;;5059377;28;20036;-72
2022/03/27 02:03:22;;;;;;;;;;;7.10;99.90;;;;;;5094097;28;20089;-71
2022/03/27 02:05:48;;;;;;;5.35;2.45;;;7.10;99.90;;;;;;5094212;28;19924;-72
2022/03/27 02:08:13;;;;;;;;;;;7.00;99.90;;;;;;5094474;28;20044;-72
2022/03/27 02:10:41;;;;;;;5.93;2.10;;;7.00;99.90;;;;;;5075429;28;19927;-72
2022/03/27 02:13:15;;;;;;;6.47;2.60;;;7.00;99.90;;;;;;5093861;28;20439;-72
2022/03/27 02:15:41;;;;;;;5.15;2.50;;;6.90;99.90;;;;;;5094449;28;20036;-71
2022/03/27 02:18:08;;;;;;;;;;;6.90;99.90;;;;;;5075802;28;20058;-71
2022/03/27 02:20:34;;;;;;;4.88;2.40;;;6.90;99.90;;;;;;5074884;28;19920;-72
2022/03/27 02:22:59;;;;;;;;;;;6.90;99.90;;;;;;5058719;28;20058;-72
2022/03/27 02:25:25;;;;;;;5.65;2.13;;;6.80;99.90;;;;;;5092982;28;19916;-72
2022/03/27 02:27:50;;;;;;;;;;;6.80;99.90;;;;;;5092399;28;20040;-72
2022/03/27 02:30:18;;;;;;;11.18;4.63;;;6.80;99.90;;;;;;5091709;28;19919;-72
2022/03/27 02:32:44;;;;;;;6.60;3.20;;;6.80;99.90;;;;;;5091422;28;20071;-72
2022/03/27 02:35:09;;;;;;;;;;;6.80;99.90;;;;;;5091649;28;20490;-72
2022/03/27 02:37:35;;;;;;;10.25;2.65;;;6.80;99.90;;;;;;5088716;28;19974;-72
2022/03/27 02:40:00;;;;;;;;;;;6.90;99.90;;;;;;5076250;28;20060;-72
2022/03/27 02:42:26;;;;;;;5.90;2.45;;;6.90;99.90;;;;;;5093220;28;19927;-72
2022/03/27 02:44:52;;;;;;;8.43;2.65;;;6.80;99.90;;;;;;5074763;28;20549;-71
2022/03/27 02:47:17;;;;;;;;;;;6.90;99.90;;;;;;5093410;28;20127;-71
2022/03/27 02:49:43;;;;;;;5.25;2.42;;;6.80;99.90;;;;;;5093727;28;19965;-71
2022/03/27 02:52:08;;;;;;;;;;;6.80;99.90;;;;;;5092356;28;20044;-70
2022/03/27 02:54:34;;;;;;;7.05;2.78;;;6.80;99.90;;;;;;5093059;28;19927;-71
2022/03/27 02:56:59;;;;;;;;;;;6.80;99.90;;;;;;5093963;28;20062;-71
2022/03/27 02:59:25;;;;;;;7.25;2.67;;;6.70;99.90;;;;;;5074177;28;19965;-72
2022/03/27 03:01:51;;;;;;;8.57;2.60;;;6.70;99.90;;;;;;5093070;28;20040;-72
2022/03/27 03:04:17;;;;;;;;;;;6.70;99.90;;;;;;5093263;28;20119;-72
2022/03/27 03:06:42;;;;;;;7.53;3.00;;;6.70;99.90;;;;;;5074443;28;20454;-72
2022/03/27 03:09:08;;;;;;;;;;;6.70;99.90;;;;;;5093491;28;20407;-72
2022/03/27 03:11:34;;;;;;;8.15;2.60;;;6.60;99.90;;;;;;5092777;28;20283;-73
2022/03/27 03:13:59;;;;;;;;;;;6.60;99.90;;;;;;5092628;28;20135;-72
2022/03/27 03:16:26;;;;;;;7.13;2.55;;;6.60;99.90;;;;;;5074826;28;20308;-71
2022/03/27 03:18:52;;;;;;;10.77;2.63;;;6.50;99.90;;;;;;5092929;28;20540;-71
2022/03/27 03:21:17;;;;;;;;;;;6.50;99.90;;;;;;5074394;28;20044;-71
2022/03/27 03:23:43;;;;;;;7.68;2.35;;;6.40;99.90;;;;;;5074537;28;19920;-71
2022/03/27 03:26:09;;;;;;;;;;;6.40;99.90;;;;;;5092557;28;20040;-71
2022/03/27 03:28:35;;;;;;;8.07;2.58;;;6.30;99.90;;;;;;5092609;28;19927;-71
2022/03/27 03:31:01;;;;;;;8.55;2.35;;;6.30;99.90;;;;;;5074604;28;20055;-71
2022/03/27 03:33:27;;;;;;;;;;;6.20;99.90;;;;;;5092767;28;20048;-71
2022/03/27 03:35:53;;;;;;;7.20;2.38;;;6.20;99.90;;;;;;5092221;28;19999;-71
2022/03/27 03:38:18;;;;;;;;;;;6.10;99.90;;;;;;5074208;28;20047;-70
2022/03/27 03:40:44;;;;;;;5.75;2.20;;;6.10;99.90;;;;;;5073650;28;20394;-71
2022/03/27 03:43:13;;;;;;;;;;;6.00;99.90;;;;;;5092906;28;20071;-70
2022/03/27 03:45:38;;;;;;;6.50;2.20;;;5.90;99.90;;;;;;5074198;28;19920;-71
2022/03/27 03:48:05;;;;;;;;;;;5.90;99.90;;;;;;5074029;28;20435;-71
2022/03/27 03:50:33;;;;;;;8.23;2.40;;;5.80;99.90;;;;;;5074576;28;19919;-71
2022/03/27 03:52:59;;;;;;;9.77;2.78;;;5.80;99.90;;;;;;5091962;28;20362;-71
2022/03/27 03:55:26;;;;;;;7.75;2.55;;;5.80;99.90;;;;;;5091611;28;20044;-71
2022/03/27 03:57:51;;;;;;;9.18;2.85;;;5.70;99.90;;;;;;5091564;28;20040;-71
2022/03/27 04:00:17;;;;;;;;;;;5.70;99.90;;;;;;5092601;28;20093;-70
2022/03/27 04:02:42;;;;;;;6.82;2.70;;;5.70;99.90;;;;;;5073423;28;19972;-70
2022/03/27 04:05:08;;;;;;;;;;;5.60;99.90;;;;;;5092211;28;20052;-71
2022/03/27 04:07:33;;;;;;;9.52;2.97;;;5.60;99.90;;;;;;5092178;28;19928;-71
2022/03/27 04:09:59;;;;;;;7.40;2.55;;;5.60;99.90;;;;;;5091312;28;20047;-71
2022/03/27 04:12:25;;;;;;;6.63;2.58;;;5.60;99.90;;;;;;5073750;28;20038;-71
2022/03/27 04:14:50;;;;;;;9.98;3.15;;;5.50;99.90;;;;;;5073883;28;20055;-71
2022/03/27 04:17:16;;;;;;;;;;;5.50;99.90;;;;;;5073829;28;20559;-71
2022/03/27 04:19:42;;;;;;;7.35;2.63;;;5.50;99.90;;;;;;5091981;28;19969;-71
2022/03/27 04:22:07;;;;;;;;;;;5.40;99.90;;;;;;5092433;28;20483;-71
2022/03/27 04:24:33;;;;;;;11.15;3.00;;;5.40;99.90;;;;;;5073674;28;19928;-71
2022/03/27 04:26:58;;;;;;;;;;;5.40;99.90;;;;;;5092447;28;20044;-71
2022/03/27 04:29:24;;;;;;;10.18;2.65;;;5.40;99.90;;;;;;5091785;28;19920;-71
2022/03/27 04:31:51;;;;;;;;;;;5.40;99.90;;;;;;5092144;28;20036;-71
2022/03/27 04:34:16;;;;;;;9.60;2.85;;;5.30;99.90;;;;;;5091452;28;19920;-71
2022/03/27 04:36:42;;;;;;;;;;;5.30;99.90;;;;;;5092318;28;20040;-71
2022/03/27 04:39:08;;;;;;;6.75;2.67;;;5.30;99.90;;;;;;5090994;28;20409;-71
2022/03/27 04:41:33;;;;;;;;;;;5.30;99.90;;;;;;5092181;28;20193;-71
2022/03/27 04:43:59;;;;;;;10.73;2.92;;;5.20;99.90;;;;;;5091820;28;19920;-71
2022/03/27 04:46:24;;;;;;;;;;;5.20;99.90;;;;;;5073406;28;20052;-70
2022/03/27 04:48:50;;;;;;;10.95;2.83;;;5.20;99.90;;;;;;5092136;28;19927;-71
2022/03/27 04:51:16;;;;;;;8.63;3.35;;;5.10;99.90;;;;;;5072608;28;20043;-71
2022/03/27 04:53:41;;;;;;;;;;;5.10;99.90;;;;;;5092348;28;20044;-71
2022/03/27 04:56:07;;;;;;;9.02;2.75;;;5.10;99.90;;;;;;5091347;28;19927;-71
2022/03/27 04:58:35;;;;;;;;;;;5.00;99.90;;;;;;5091851;28;20144;-71
2022/03/27 05:01:01;;;;;;;10.07;2.58;;;5.00;99.90;;;;;;5091341;28;19927;-71
2022/03/27 05:03:27;;;;;;;;;;;5.00;99.90;;;;;;5091554;28;20059;-71
2022/03/27 05:05:53;;;;;;;9.45;2.75;;;4.90;99.90;;;;;;5073194;28;19920;-71
2022/03/27 05:08:20;;;;;;;;;;;4.90;99.90;;;;;;5091106;28;20463;-71
2022/03/27 05:10:52;;;;;;;12.80;4.88;;;4.90;99.90;;;;;;5095097;28;20743;-72
2022/03/27 05:13:18;;;;;;;7.38;2.60;;;4.80;99.90;;;;;;5094821;28;20434;-72
2022/03/27 05:15:44;;;;;;;11.20;3.30;;;4.90;99.90;;;;;;5095302;28;20093;-71
2022/03/27 05:18:10;;;;;;;12.20;3.20;;;4.80;99.90;;;;;;5095089;28;20044;-71
2022/03/27 05:20:38;;;;;;;;;;;4.80;99.90;;;;;;5095081;28;20116;-71
2022/03/27 05:23:03;;;;;;;9.55;3.15;;;4.80;99.90;;;;;;5076877;28;19955;-71
2022/03/27 05:25:29;;;;;;;;;;;4.80;99.90;;;;;;5095512;28;20454;-71
2022/03/27 05:27:58;;;;;;;12.43;3.60;;;4.80;99.90;;;;;;5076635;28;20019;-71
2022/03/27 05:30:26;;;;;;;12.13;3.47;;;5.40;99.90;;;;;;5094812;28;20048;-71
2022/03/27 05:32:53;;;;;;;10.45;3.60;;;4.80;99.90;;;;;;5076872;28;20057;-70
2022/03/27 05:35:20;;;;;;;16.35;3.20;;;4.80;99.90;;;;;;5075743;28;20145;-72
2022/03/27 05:37:47;;;;;;;12.43;3.55;;;4.80;99.90;;;;;;5095295;28;20044;-71
2022/03/27 05:40:17;;;;;;;14.50;3.60;;;4.80;99.90;;;;;;5094606;28;20509;-71
2022/03/27 05:42:43;;;;;;;13.30;3.08;;;4.80;99.90;;;;;;5094793;28;20411;-71
2022/03/27 05:45:09;;;;;;;;;;;4.80;99.90;;;;;;5076608;28;20048;-71
2022/03/27 05:47:37;;;;;;;11.65;3.63;;;4.80;99.90;;;;;;5076253;28;19970;-71
2022/03/27 05:50:04;;;;;;;12.48;3.72;;;4.80;99.90;;;;;;5077139;28;20122;-72
2022/03/27 05:52:29;;;;;;;9.95;2.80;;;4.80;99.90;;;;;;5076480;28;20036;-71
2022/03/27 05:54:56;;;;;;;;;;;4.80;99.90;;;;;;5095009;28;20153;-71
2022/03/27 05:57:22;;;;;;;8.95;3.20;;;4.80;99.90;;;;;;5075926;28;19927;-71
2022/03/27 05:59:48;;;;;;;;;;;4.80;99.90;;;;;;5095081;28;20044;-71
2022/03/27 06:02:14;;;;;;;6.93;2.60;;;4.80;99.90;;;;;;5093434;28;19920;-71
2022/03/27 06:04:41;;;;;;;6.85;2.40;;;4.70;99.90;;;;;;5076732;28;20044;-71
2022/03/27 06:07:07;;;;;;;7.43;2.50;;;4.70;99.90;;;;;;5094014;28;20067;-71
2022/03/27 06:09:33;;;;;;;8.05;2.75;;;4.70;99.90;;;;;;5094322;28;20040;-71
2022/03/27 06:11:58;;;;;;;;;;;4.80;99.90;;;;;;5094567;28;20410;-71
2022/03/27 06:14:24;;;;;;;10.18;2.83;;;4.80;99.90;;;;;;5093860;28;20006;-72
2022/03/27 06:16:49;;;;;;;;;;;4.80;99.90;;;;;;5076275;28;20043;-71
2022/03/27 06:19:15;;;;;;;12.60;3.15;;;4.90;99.90;;;;;;5094064;28;20366;-71
2022/03/27 06:21:41;;;;;;;11.57;3.65;;;5.00;99.90;;;;;;5092798;28;20159;-71
2022/03/27 06:24:06;;;;;;;;;;;5.00;99.90;;;;;;5093688;28;20095;-72
2022/03/27 06:26:32;;;;;;;10.43;2.90;;;5.00;99.90;;;;;;5076131;28;20307;-72
2022/03/27 06:28:57;;;;;;;;;;;5.10;99.90;;;;;;5076743;28;20052;-72
2022/03/27 06:31:23;;;;;;;10.93;3.55;;;5.20;99.90;;;;;;5075203;28;19987;-72
2022/03/27 06:33:48;;;;;;;;;;;5.30;99.90;;;;;;5094147;28;20048;-72
2022/03/27 06:36:14;;;;;;;14.68;3.05;;;5.30;99.90;;;;;;5093835;28;19920;-72
2022/03/27 06:38:39;;;;;;;;;;;5.40;99.90;;;;;;5075000;28;20048;-72
2022/03/27 06:41:06;;;;;;;15.70;3.65;;;5.50;99.90;;;;;;5093175;28;19982;-72
2022/03/27 06:43:32;;;;;;;12.20;3.20;;;5.50;99.90;;;;;;5075591;28;20185;-72
2022/03/27 06:45:58;;;;;;;19.95;3.67;;;5.70;99.90;;;;;;5074071;28;20065;-71
2022/03/27 06:48:24;;;;;;;;;;;5.70;99.90;;;;;;5075909;28;20131;-70
2022/03/27 06:50:50;;;;;;;17.95;3.80;;;5.80;99.90;;;;;;5093273;28;19920;-70
2022/03/27 06:53:20;;;;;;;18.67;3.80;;;5.90;99.90;;;;;;5074630;28;20047;-71
2022/03/27 06:55:47;;;;;;;19.00;3.95;;;6.00;99.90;;;;;;5093845;28;20101;-71
2022/03/27 06:58:12;;;;;;;20.30;4.43;;;6.10;99.90;;;;;;5074130;28;20128;-71
2022/03/27 07:03:22;;;;;;;16.15;3.80;;;6.30;99.90;;;;;;5092910;28;19920;-71
2022/03/27 07:05:48;;;;;;;;;;;6.30;99.90;;;;;;5075460;28;20054;-71
2022/03/27 07:08:19;;;;;;;16.33;4.03;;;6.40;99.90;;;;;;5092831;28;19924;-71
2022/03/27 07:10:46;;;;;;;18.90;4.20;;;6.50;99.90;;;;;;5091522;28;20028;-71
2022/03/27 07:13:14;;;;;;;17.83;4.45;;;6.60;99.90;;;;;;5074418;28;20047;-71
2022/03/27 07:15:41;;;;;;;20.20;4.63;;;6.70;99.90;;;;;;5093442;28;20047;-71
2022/03/27 07:18:08;;;;;;;21.27;4.75;;;6.80;99.90;;;;;;5092820;28;20059;-71
2022/03/27 07:20:40;;;;;;;23.13;4.35;;;7.00;99.90;;;;;;5074021;28;20499;-72
2022/03/27 07:23:09;;;;;;;16.45;3.72;;;7.10;99.90;;;;;;5092813;28;20043;-72
2022/03/27 07:25:38;;;;;;;23.75;5.05;;;7.20;99.90;;;;;;5092473;28;20135;-72
2022/03/27 07:28:05;;;;;;;27.33;3.92;;;7.40;99.90;;;;;;5092121;28;20075;-70
2022/03/27 07:30:32;;;;;;;20.27;4.55;;;7.50;99.90;;;;;;5093215;28;20052;-72
2022/03/27 07:32:58;;;;;;;18.63;4.25;;;7.60;99.90;;;;;;5073731;28;20044;-72
2022/03/27 07:35:26;;;;;;;;;;;7.90;99.90;;;;;;5074380;28;20052;-71
2022/03/27 07:37:52;;;;;;;18.00;4.15;;;8.10;99.90;;;;;;5074537;28;19926;-72
2022/03/27 07:40:20;;;;;;;19.90;4.28;;;9.20;99.90;;;;;;5091752;28;20119;-71
2022/03/27 07:42:49;;;;;;;17.88;4.40;;;10.60;99.90;;;;;;5074280;28;20058;-73
2022/03/27 07:45:18;;;;;;;18.20;4.65;;;11.90;99.90;;;;;;5091967;28;20051;-72
2022/03/27 07:47:44;;;;;;;20.55;5.22;;;13.00;99.90;;;;;;5073970;28;20048;-71
2022/03/27 07:50:11;;;;;;;18.63;4.28;;;14.00;99.90;;;;;;5092575;28;20044;-72
2022/03/27 07:52:38;;;;;;;18.83;3.95;;;14.90;99.90;;;;;;5092413;28;20047;-72
2022/03/27 07:55:06;;;;;;;16.88;4.22;;;15.50;99.90;;;;;;5091642;28;20098;-73
2022/03/27 07:57:32;;;;;;;17.38;4.50;;;16.10;99.90;;;;;;5092489;28;20096;-71
2022/03/27 07:59:58;;;;;;;21.52;4.38;;;16.60;99.90;;;;;;5092407;28;20438;-76
2022/03/27 08:02:24;;;;;;;16.90;4.38;;;17.00;99.90;;;;;;5091764;28;20044;-79
2022/03/27 08:04:49;;;;;;;15.07;3.60;;;17.80;99.90;;;;;;5091909;28;20059;-83
2022/03/27 08:07:15;;;;;;;14.80;3.88;;;18.30;99.90;;;;;;5092371;28;20044;-82
2022/03/27 08:09:41;;;;;;;15.00;4.28;;;18.60;98.70;;;;;;5073860;28;20130;-79
2022/03/27 08:12:09;;;;;;;17.58;4.50;;;18.90;99.20;;;;;;5074249;28;20515;-77
2022/03/27 08:14:35;;;;;;;13.65;4.18;;;19.10;98.00;;;;;;5074001;28;20495;-77
2022/03/27 08:17:02;;;;;;;14.32;4.30;;;19.50;97.70;;;;;;5091769;28;20047;-76
2022/03/27 08:19:28;;;;;;;17.30;5.25;;;19.90;97.50;;;;;;5091814;28;20040;-76
2022/03/27 08:21:54;;;;;;;15.40;4.38;;;20.40;96.60;;;;;;5092089;28;20048;-80
2022/03/27 08:24:20;;;;;;;10.95;3.75;;;20.90;95.00;;;;;;5072285;28;20028;-79
2022/03/27 08:26:55;;;;;;;17.05;4.60;;;20.60;92.10;;;;;;5073374;28;20524;-78
2022/03/27 08:29:24;;;;;;;15.75;4.43;;;20.90;93.60;;;;;;5072823;28;20047;-84
2022/03/27 08:31:52;;;;;;;13.98;4.25;;;21.80;93.10;;;;;;5073178;28;20036;-79
2022/03/27 08:34:20;;;;;;;13.18;4.30;;;21.40;93.10;;;;;;5088674;28;20428;-78
2022/03/27 08:36:46;;;;;;;16.67;4.38;;;22.00;91.70;;;;;;5072893;28;20040;-74
2022/03/27 08:39:12;;;;;;;19.35;3.78;;;21.90;89.70;;;;;;5072723;28;20090;-80
2022/03/27 08:41:45;;;;;;;15.45;4.30;;;22.10;89.60;;;;;;5091438;28;20052;-77
2022/03/27 08:44:14;;;;;;;16.70;4.70;;;22.20;84.20;;;;;;5074255;28;20082;-76
2022/03/27 08:54:35;;;;;;;22.88;4.25;;;23.00;81.40;;;;;;5175347;22;20153;-72
2022/03/27 08:57:08;;;;;;;11.77;4.15;;;23.20;76.30;;;;;;4997832;28;20746;-73
2022/03/27 08:59:38;;;;;;;14.32;3.92;;;23.30;76.50;;;;;;4996121;28;20060;-79
2022/03/27 09:02:04;;;;;;;10.23;3.70;;;24.00;72.10;;;;;;4996310;28;20050;-77
2022/03/27 09:04:31;;;;;;;12.82;3.63;;;24.20;72.10;;;;;;4995408;28;20481;-71
2022/03/27 09:06:57;;;;;;;14.27;4.10;;;24.20;68.00;;;;;;4996809;28;20109;-75
2022/03/27 09:09:22;;;;;;;12.43;4.43;;;24.00;66.20;;;;;;4996307;28;20195;-77
2022/03/27 09:11:51;;;;;;;16.20;4.78;;;24.50;68.30;;;;;;4996592;28;20529;-76
2022/03/27 09:14:18;;;;;;;12.13;4.57;;;24.20;68.00;;;;;;4999683;28;20042;-75
2022/03/27 09:17:04;;;;;;;11.50;4.15;;;24.30;68.40;;;;;;4992089;28;20389;-75
2022/03/27 09:19:45;;;;;;;17.02;4.53;;;24.40;62.90;;;;;;4990622;28;20069;-76
2022/03/27 09:22:28;;;;;;;14.20;4.25;;;24.20;61.50;;;;;;4989443;28;20069;-75
2022/03/27 09:25:11;;;;;;;12.00;3.65;;;24.40;62.30;;;;;;4990286;28;20559;-74
2022/03/27 09:27:37;;;;;;;14.82;4.10;;;24.40;59.20;;;;;;4996741;28;20081;-74
2022/03/27 09:30:11;;;;;;;12.88;4.03;;;24.40;63.90;;;;;;4995348;28;20046;-74
2022/03/27 09:32:42;;;;;;;12.27;3.75;;;24.30;63.30;;;;;;4998417;28;20042;-75
2022/03/27 09:35:18;;;;;;;10.32;3.97;;;24.90;62.40;;;;;;4995717;28;20082;-74
2022/03/27 09:37:46;;;;;;;12.10;4.13;;;24.50;64.60;;;;;;4989636;28;20093;-74
2022/03/27 09:40:16;;;;;;;10.20;3.75;;;24.70;61.70;;;;;;4992395;28;20051;-74
2022/03/27 09:42:43;;;;;;;10.55;3.85;;;24.60;61.30;;;;;;4992263;28;20129;-73
2022/03/27 09:45:15;;;;;;;11.23;3.97;;;24.80;60.00;;;;;;4990342;28;20109;-73
2022/03/27 09:47:42;;;;;;;10.90;3.78;;;24.90;60.40;;;;;;4993739;28;20145;-74
2022/03/27 09:50:09;;;;;;;12.85;4.10;;;25.30;60.50;;;;;;4991715;28;20051;-73
2022/03/27 09:52:35;;;;;;;13.05;4.38;;;25.60;61.00;;;;;;4991491;28;20477;-74
2022/03/27 09:55:07;;;;;;;9.65;3.50;;;25.50;58.50;;;;;;4988419;28;20117;-74
2022/03/27 09:57:40;;;;;;;13.60;4.10;;;25.70;56.20;;;;;;4989662;28;20058;-74
2022/03/27 10:00:15;;;;;;;11.85;4.10;;;25.70;57.20;;;;;;4992688;28;20410;-75
2022/03/27 10:02:43;;;;;;;10.10;3.53;;;25.90;55.10;;;;;;4995189;28;20402;-76
2022/03/27 10:05:16;;;;;;;9.65;3.70;;;25.30;55.90;;;;;;4998055;28;20046;-73
2022/03/27 10:07:45;;;;;;;10.75;3.53;;;25.10;55.10;;;;;;4990636;28;20536;-74
2022/03/27 10:10:13;;;;;;;9.73;3.67;;;25.30;54.80;;;;;;4986417;28;20052;-73
2022/03/27 10:12:42;;;;;;;10.55;3.67;;;25.30;54.50;;;;;;4988537;28;20371;-74
2022/03/27 10:15:14;;;;;;;7.07;2.83;;;25.20;53.20;;;;;;4988776;28;20558;-76
2022/03/27 10:17:43;;;;;;;8.65;2.95;;;25.60;50.80;;;;;;4990391;28;20109;-76
2022/03/27 10:20:10;;;;;;;10.95;3.40;;;25.60;50.60;;;;;;4995082;28;20132;-74
2022/03/27 10:23:09;;;;;;;9.27;3.25;;;25.30;51.50;;;;;;4988477;28;20054;-79
2022/03/27 10:25:40;;;;;;;7.45;2.60;;;25.60;50.30;;;;;;4989167;28;20120;-76
2022/03/27 10:28:07;;;;;;;9.00;3.47;;;25.40;50.40;;;;;;4989469;28;20092;-76
2022/03/27 10:30:33;;;;;;;9.20;3.55;;;25.40;50.50;;;;;;4989359;28;20109;-73
2022/03/27 10:33:01;;;;;;;9.43;3.17;;;25.30;50.60;;;;;;4990422;28;20120;-72
2022/03/27 10:35:47;;;;;;;10.13;3.08;;;25.20;50.80;;;;;;4990681;28;20390;-74
2022/03/27 10:38:38;;;;;;;7.22;3.00;;;25.10;50.40;;;;;;4979410;28;20129;-72
2022/03/27 10:41:04;;;;;;;11.13;3.05;;;25.50;50.60;;;;;;4990623;28;20042;-73
2022/03/27 10:43:50;;;;;;;9.95;3.45;;;25.50;50.10;;;;;;4990751;28;20050;-75
2022/03/27 10:46:19;;;;;;;9.27;3.10;;;25.40;50.30;;;;;;4989417;28;20081;-76
2022/03/27 10:48:45;;;;;;;6.93;2.67;;;25.40;50.10;;;;;;4991066;28;20068;-75
2022/03/27 10:51:35;;;;;;;7.65;2.67;;;25.70;48.00;;;;;;4988305;28;20061;-80
2022/03/27 10:54:15;;;;;;;8.65;3.00;;;25.40;48.00;;;;;;4992689;28;20050;-79
2022/03/27 10:56:46;;;;;;;7.93;2.67;;;25.50;47.00;;;;;;4994491;28;20405;-78
2022/03/27 10:59:17;;;;;;;8.55;2.97;;;25.50;47.00;;;;;;4993526;28;20046;-80
2022/03/27 11:01:44;;;;;;;9.30;2.92;;;25.60;47.40;;;;;;4993245;28;20471;-78
2022/03/27 11:04:18;;;;;;;7.50;2.90;;;25.50;47.70;;;;;;4994409;28;20550;-77
2022/03/27 11:06:47;;;;;;;7.10;2.65;;;25.40;47.30;;;;;;4993143;28;20078;-78
2022/03/27 11:09:35;;;;;;;8.57;2.63;;;25.60;46.30;;;;;;4994434;28;20057;-76
2022/03/27 11:12:02;;;;;;;;;;;25.70;41.80;;;;;;4994946;28;20428;-76
2022/03/27 11:14:53;;;;;;;7.10;2.67;;;25.70;40.50;;;;;;4993855;28;19922;-76
2022/03/27 11:17:41;;;;;;;7.25;2.33;;;25.80;44.00;;;;;;4995267;28;20043;-75
2022/03/27 11:20:09;;;;;;;6.53;2.00;;;26.00;41.20;;;;;;4987711;28;20054;-75
2022/03/27 11:22:40;;;;;;;6.00;2.10;;;25.70;39.70;;;;;;4991209;28;20054;-74
2022/03/27 11:25:34;;;;;;;8.13;2.30;;;25.60;40.00;;;;;;5005297;28;20045;-75
2022/03/27 11:28:03;;;;;;;7.28;1.90;;;25.90;39.20;;;;;;5013774;28;20556;-75
2022/03/27 11:30:29;;;;;;;5.35;1.83;;;25.70;37.40;;;;;;5013561;28;20121;-75
2022/03/27 11:33:18;;;;;;;6.90;1.90;;;25.50;36.30;;;;;;5001343;28;20096;-76
2022/03/27 11:36:07;;;;;;;5.57;1.80;;;25.70;37.90;;;;;;4993810;28;20046;-78
2022/03/27 11:38:53;;;;;;;6.40;2.13;;;25.60;38.30;;;;;;4992815;28;20058;-76
2022/03/27 11:41:27;;;;;;;8.65;2.33;;;25.80;40.20;;;;;;4994210;28;20038;-76
2022/03/27 11:43:55;;;;;;;8.70;2.17;;;25.70;39.40;;;;;;4992296;28;20153;-76
2022/03/27 11:46:26;;;;;;;6.97;2.30;;;25.70;40.70;;;;;;4993893;28;20048;-76
2022/03/27 11:48:57;;;;;;;6.78;1.90;;;25.50;41.70;;;;;;4993747;28;20050;-75
2022/03/27 11:51:26;;;;;;;5.38;1.90;;;25.80;40.10;;;;;;4988158;28;20042;-75
2022/03/27 11:53:53;;;;;;;6.78;2.10;;;25.40;38.40;;;;;;4992814;28;20061;-73
2022/03/27 11:56:20;;;;;;;5.60;2.00;;;25.30;39.80;;;;;;4991929;28;20118;-75
2022/03/27 11:59:09;;;;;;;6.80;2.10;;;25.30;39.80;;;;;;4992514;28;20050;-77
2022/03/27 12:01:36;;;;;;;6.82;2.25;;;25.20;39.00;;;;;;4993761;28;20057;-78
2022/03/27 12:04:05;;;;;;;4.15;1.42;;;25.10;40.40;;;;;;5004706;28;20038;-74
2022/03/27 12:06:37;;;;;;;5.55;1.75;;;25.00;36.40;;;;;;5006573;28;20042;-77
2022/03/27 12:09:03;;;;;;;5.28;2.10;;;24.60;38.60;;;;;;4988855;28;20053;-77
2022/03/27 12:11:28;;;;;;;6.05;2.17;;;24.50;41.00;;;;;;4999526;28;20041;-77
2022/03/27 12:13:56;;;;;;;4.88;1.70;;;25.00;40.40;;;;;;4992898;28;20046;-80
2022/03/27 12:16:31;;;;;;;5.90;1.73;;;24.50;39.20;;;;;;4990403;28;20500;-76
2022/03/27 12:18:58;;;;;;;3.95;1.27;;;24.40;40.10;;;;;;4990702;28;20077;-76
2022/03/27 12:21:24;;;;;;;194.45;23.17;;;25.00;40.20;;;;;;4992922;28;20149;-77
2022/03/27 12:23:55;;;;;;;7.22;1.80;;;25.10;40.30;;;;;;4992638;28;20109;-71
2022/03/27 12:29:40;;;;;;;6.78;1.90;;;25.30;38.40;;;;;;5004857;28;20041;-75
2022/03/27 12:32:16;;;;;;;5.28;1.80;;;25.30;39.40;;;;;;5012505;28;20451;-73
2022/03/27 12:34:45;;;;;;;6.97;2.08;;;25.40;39.60;;;;;;5012531;28;20049;-77
2022/03/27 12:37:16;;;;;;;6.43;1.80;;;25.70;39.70;;;;;;5013175;28;20079;-76
2022/03/27 12:39:47;;;;;;;4.10;1.80;;;25.40;38.80;;;;;;4987675;28;20129;-84
2022/03/27 12:42:35;;;;;;;5.63;1.67;;;25.30;39.40;;;;;;4992775;28;20104;-82
2022/03/27 12:45:22;;;;;;;4.15;1.50;;;25.30;39.40;;;;;;5003203;28;20134;-76
2022/03/27 12:47:58;;;;;;;5.60;1.55;;;25.30;40.20;;;;;;4994915;28;20069;-75
2022/03/27 12:50:38;;;;;;;;;;;25.00;38.70;;;;;;4992726;28;20501;-75
2022/03/27 12:53:12;;;;;;;5.00;1.77;;;24.80;38.70;;;;;;5007960;28;19929;-83
2022/03/27 12:55:51;;;;;;;4.22;1.50;;;24.80;40.80;;;;;;5000844;28;20062;-78
2022/03/27 12:58:32;;;;;;;5.63;1.98;;;24.50;39.70;;;;;;4991431;28;20129;-80
2022/03/27 13:01:20;;;;;;;5.75;1.67;;;24.20;39.10;;;;;;4989758;28;20038;-80
2022/03/27 13:04:08;;;;;;;8.27;1.98;;;23.60;39.10;;;;;;4971972;28;20122;-82
2022/03/27 13:06:35;;;;;;;4.90;1.50;;;23.00;39.60;;;;;;4975459;28;20039;-78
2022/03/27 13:09:03;;;;;;;6.20;1.90;;;22.40;40.50;;;;;;4986685;28;20049;-81
2022/03/27 13:11:29;;;;;;;7.05;1.77;;;22.10;41.20;;;;;;4992439;28;20042;-77
2022/03/27 13:14:02;;;;;;;5.03;1.88;;;21.60;41.90;;;;;;4992103;28;20560;-77
2022/03/27 13:16:33;;;;;;;5.60;1.55;;;21.10;41.50;;;;;;4991388;28;20050;-79
2022/03/27 13:19:17;;;;;;;5.68;1.60;;;20.90;43.90;;;;;;4991431;28;20494;-80
2022/03/27 13:21:53;;;;;;;6.35;1.70;;;20.60;43.90;;;;;;4992276;28;20489;-76
2022/03/27 13:24:24;;;;;;;6.13;1.60;;;20.30;43.70;;;;;;4992142;28;20089;-76
2022/03/27 13:26:53;;;;;;;7.75;2.42;;;20.20;45.50;;;;;;4991630;28;20043;-79
2022/03/27 13:29:20;;;;;;;8.73;2.35;;;19.80;48.20;;;;;;4993096;28;20038;-76